Time;durP1;ratioP1;P1;durP2;ratioP2;P2;SDS_P1;SDS_P2;PMS_P1;PMS_P2;Temp;Humidity;BMP_temperature;BMP_pressure;BME280_temperature;BME280_humidity;BME280_pressure;Samples;Min_cycle;Max_cycle;Signal;HPM_P1;HPM_P2
2022/01/05 00:02:22;;;;;;;98.55;82.97;;;;;;;8.03;61.06;100432.31;5029247;28;20497;-70
2022/01/05 00:04:48;;;;;;;104.70;87.35;;;;;;;7.87;61.33;100426.50;5029964;28;20493;-70
2022/01/05 00:07:15;;;;;;;103.35;86.88;;;;;;;7.82;61.59;100418.97;5029588;28;20472;-69
2022/01/05 00:09:43;;;;;;;88.82;77.47;;;;;;;7.77;62.13;100416.69;5029238;28;20493;-69
2022/01/05 00:12:12;;;;;;;80.63;70.10;;;;;;;7.72;62.47;100416.16;5029551;28;20537;-70
2022/01/05 00:14:39;;;;;;;84.75;72.90;;;;;;;7.90;62.09;100418.38;5029070;28;20414;-69
2022/01/05 00:17:06;;;;;;;72.63;64.17;;;;;;;7.83;62.60;100420.66;5029379;28;20430;-70
2022/01/05 00:19:34;;;;;;;68.45;59.90;;;;;;;7.62;63.70;100420.47;5028548;28;20410;-70
2022/01/05 00:22:01;;;;;;;70.20;60.05;;;;;;;7.63;63.80;100422.16;5029366;28;20418;-70
2022/01/05 00:24:28;;;;;;;71.82;62.10;;;;;;;7.43;64.00;100424.47;5029052;28;20428;-70
2022/01/05 00:26:56;;;;;;;66.80;57.90;;;;;;;7.46;64.09;100419.94;5029350;28;20497;-70
2022/01/05 00:29:24;;;;;;;62.60;55.80;;;;;;;7.56;64.00;100411.25;5029051;28;20791;-70
2022/01/05 00:31:52;;;;;;;60.42;53.65;;;;;;;7.46;64.40;100407.63;5032168;28;20497;-69
2022/01/05 00:34:18;;;;;;;61.33;53.22;;;;;;;7.64;63.78;100402.72;5032989;28;20496;-70
2022/01/05 00:36:45;;;;;;;61.55;53.65;;;;;;;7.85;63.06;100408.19;5033202;28;20808;-70
2022/01/05 00:39:12;;;;;;;63.97;55.17;;;;;;;7.91;62.99;100406.88;5032924;28;20970;-70
2022/01/05 00:41:39;;;;;;;61.60;54.80;;;;;;;7.91;62.66;100407.72;5033460;28;20496;-69
2022/01/05 00:44:07;;;;;;;65.30;54.75;;;;;;;7.72;63.19;100407.44;5032774;28;20505;-69
2022/01/05 00:46:35;;;;;;;70.35;59.28;;;;;;;7.57;63.54;100412.06;5033143;28;20513;-70
2022/01/05 00:49:02;;;;;;;72.70;62.60;;;;;;;7.58;63.66;100396.16;5032484;28;20841;-70
2022/01/05 00:51:29;;;;;;;71.10;59.50;;;;;;;7.78;63.60;100404.31;5032943;28;20422;-70
2022/01/05 00:53:56;;;;;;;72.28;59.00;;;;;;;7.98;62.88;100401.00;5032590;28;20874;-70
2022/01/05 00:56:23;;;;;;;73.47;60.60;;;;;;;7.99;63.11;100401.84;5032578;28;20418;-70
2022/01/05 00:58:50;;;;;;;71.68;61.13;;;;;;;8.01;63.11;100397.31;5032493;28;20430;-70
2022/01/05 01:01:17;;;;;;;71.43;60.05;;;;;;;8.10;62.59;100401.03;5032764;28;20432;-70
2022/01/05 01:03:45;;;;;;;68.45;59.45;;;;;;;8.12;62.60;100402.56;5032759;28;20500;-70
2022/01/05 01:06:12;;;;;;;73.28;60.13;;;;;;;8.20;62.62;100392.25;5047647;28;20406;-70
2022/01/05 01:08:39;;;;;;;71.60;59.35;;;;;;;8.25;62.50;100393.69;5032324;28;20501;-70
2022/01/05 01:11:06;;;;;;;74.47;60.95;;;;;;;8.40;61.58;100392.50;5032259;28;20421;-69
2022/01/05 01:13:34;;;;;;;73.43;61.60;;;;;;;8.37;61.62;100392.75;5032582;28;20533;-70
2022/01/05 01:16:01;;;;;;;72.75;61.15;;;;;;;8.21;61.88;100382.53;5031049;28;20501;-70
2022/01/05 01:18:28;;;;;;;75.10;63.70;;;;;;;8.26;61.70;100388.31;5032135;28;20517;-69
2022/01/05 01:20:56;;;;;;;83.68;73.07;;;;;;;8.32;61.41;100384.34;5032429;28;20425;-69
2022/01/05 01:23:24;;;;;;;86.07;75.30;;;;;;;8.25;61.18;100391.06;5032095;28;21075;-70
2022/01/05 01:25:51;;;;;;;81.95;68.30;;;;;;;8.46;60.07;100391.22;5047524;28;20908;-70
2022/01/05 01:28:19;;;;;;;76.93;66.50;;;;;;;8.37;60.00;100392.75;5032030;28;20788;-70
2022/01/05 01:30:46;;;;;;;77.05;68.28;;;;;;;8.41;59.99;100388.94;5032005;28;20489;-70
2022/01/05 01:33:13;;;;;;;76.47;65.23;;;;;;;7.90;61.27;100392.00;5032232;28;20425;-69
2022/01/05 01:35:40;;;;;;;75.35;67.45;;;;;;;8.04;61.20;100370.66;5032191;28;20501;-70
2022/01/05 01:38:09;;;;;;;74.93;63.17;;;;;;;7.76;61.85;100383.34;5031291;28;20444;-70
2022/01/05 01:40:36;;;;;;;69.80;62.25;;;;;;;8.07;61.19;100375.72;5031715;28;20864;-70
2022/01/05 01:43:02;;;;;;;72.78;63.60;;;;;;;8.20;60.76;100379.06;5030680;28;20994;-69
2022/01/05 01:45:30;;;;;;;71.28;63.60;;;;;;;8.27;60.35;100379.41;5031714;28;20418;-69
2022/01/05 01:47:57;;;;;;;69.27;61.63;;;;;;;8.16;60.20;100380.25;5031888;28;20792;-70
2022/01/05 01:50:24;;;;;;;66.07;58.70;;;;;;;8.19;60.28;100387.97;5031571;28;20407;-70
2022/01/05 01:52:51;;;;;;;62.60;55.05;;;;;;;8.05;60.79;100382.06;5031617;28;21023;-70
2022/01/05 01:55:20;;;;;;;59.28;52.95;;;;;;;7.81;61.85;100367.19;5031610;28;20880;-69
2022/01/05 01:57:48;;;;;;;60.22;53.80;;;;;;;7.87;61.94;100373.75;5031406;28;20932;-69
2022/01/05 02:00:15;;;;;;;63.03;56.45;;;;;;;7.97;61.24;100378.22;5031393;28;20468;-69
2022/01/05 02:02:45;;;;;;;67.70;59.53;;;;;;;7.78;61.40;100378.78;5031363;28;20951;-70
2022/01/05 02:05:12;;;;;;;70.25;62.63;;;;;;;7.76;61.64;100383.34;5031620;28;20410;-70
2022/01/05 02:07:39;;;;;;;73.90;65.38;;;;;;;7.91;61.00;100378.69;5031634;28;20446;-70
2022/01/05 02:10:07;;;;;;;73.60;65.65;;;;;;;7.73;61.59;100377.47;5031582;28;20429;-69
2022/01/05 02:12:35;;;;;;;68.22;59.97;;;;;;;7.57;61.74;100378.63;5031562;28;20418;-70
2022/01/05 02:15:02;;;;;;;72.30;64.50;;;;;;;7.81;61.21;100373.28;5031191;28;20421;-70
2022/01/05 02:17:43;;;;;;;73.90;65.78;;;;;;;7.96;60.76;100373.91;5031061;28;20448;-70
2022/01/05 02:20:16;;;;;;;78.45;69.30;;;;;;;7.82;61.34;100380.22;5031077;28;20468;-70
2022/01/05 02:22:45;;;;;;;77.65;69.28;;;;;;;7.93;61.54;100374.16;5031286;28;20502;-70
2022/01/05 02:25:13;;;;;;;80.47;66.70;;;;;;;7.77;62.10;100361.28;5031020;28;20911;-70
2022/01/05 02:27:41;;;;;;;70.28;61.95;;;;;;;7.82;62.21;100368.84;5030879;28;20410;-70
2022/01/05 02:30:10;;;;;;;63.22;56.28;;;;;;;7.27;64.01;100367.75;5046297;28;20966;-70
2022/01/05 02:32:37;;;;;;;70.97;63.15;;;;;;;7.06;64.55;100364.94;5031066;28;20497;-70
2022/01/05 02:35:06;;;;;;;86.43;77.05;;;;;;;7.04;64.72;100359.78;5030738;28;20418;-70
2022/01/05 02:37:33;;;;;;;89.82;78.15;;;;;;;6.99;64.64;100362.72;5030705;28;20517;-70
2022/01/05 02:40:01;;;;;;;82.18;73.57;;;;;;;7.16;64.37;100363.31;5030662;28;20506;-70
2022/01/05 02:42:29;;;;;;;80.97;72.35;;;;;;;7.38;63.33;100347.56;5030184;28;20414;-69
2022/01/05 02:44:57;;;;;;;80.15;71.38;;;;;;;7.37;63.87;100353.78;5030213;28;20544;-70
2022/01/05 02:47:24;;;;;;;78.53;69.93;;;;;;;7.26;63.97;100359.03;5030660;28;20414;-70
2022/01/05 02:49:51;;;;;;;80.78;70.10;;;;;;;7.41;63.52;100336.78;5030495;28;20414;-70
2022/01/05 02:52:18;;;;;;;81.55;68.85;;;;;;;7.13;63.88;100347.72;5030859;28;20414;-70
2022/01/05 02:54:45;;;;;;;62.67;55.10;;;;;;;6.84;64.62;100347.22;5030228;28;20792;-69
2022/01/05 02:57:13;;;;;;;63.53;56.03;;;;;;;7.05;63.76;100348.28;5030651;28;20476;-69
2022/01/05 02:59:40;;;;;;;65.10;57.97;;;;;;;6.89;64.67;100345.91;5030274;28;20438;-70
2022/01/05 03:02:07;;;;;;;65.25;56.92;;;;;;;6.85;64.52;100356.78;5030206;28;20789;-70
2022/01/05 03:04:34;;;;;;;66.47;59.17;;;;;;;6.79;64.57;100351.03;5030214;28;20422;-69
2022/01/05 03:07:01;;;;;;;57.22;50.15;;;;;;;7.00;64.20;100359.16;5030133;28;20920;-70
2022/01/05 03:09:28;;;;;;;57.63;50.33;;;;;;;6.80;63.99;100351.88;5030173;28;20457;-70
2022/01/05 03:11:55;;;;;;;51.90;46.30;;;;;;;6.51;65.39;100354.81;5030465;28;20492;-69
2022/01/05 03:14:23;;;;;;;59.08;51.13;;;;;;;6.66;64.20;100350.22;5030287;28;20524;-69
2022/01/05 03:16:50;;;;;;;54.40;48.35;;;;;;;6.37;65.33;100345.28;5030011;28;20952;-70
2022/01/05 03:19:17;;;;;;;55.28;46.05;;;;;;;6.39;65.44;100347.81;5029961;28;20430;-70
2022/01/05 03:21:44;;;;;;;56.17;47.53;;;;;;;6.42;65.32;100344.94;5045552;28;20505;-70
2022/01/05 03:24:11;;;;;;;57.55;49.88;;;;;;;6.98;63.53;100340.00;5030461;28;20505;-70
2022/01/05 03:26:38;;;;;;;55.28;47.95;;;;;;;7.27;62.19;100338.78;5029769;28;20421;-70
2022/01/05 03:29:05;;;;;;;57.17;49.95;;;;;;;7.38;61.55;100336.16;5030176;28;20414;-70
2022/01/05 03:31:34;;;;;;;57.47;50.38;;;;;;;7.37;61.40;100332.69;5030093;28;20445;-70
2022/01/05 03:34:01;;;;;;;55.50;49.33;;;;;;;7.28;61.58;100346.56;5029782;28;20509;-70
2022/01/05 03:36:28;;;;;;;255.85;228.73;;;;;;;7.46;61.04;100343.50;5029703;28;20506;-70
2022/01/05 03:38:55;;;;;;;61.88;51.63;;;;;;;6.99;61.62;100344.28;5029569;28;21007;-70
2022/01/05 03:41:22;;;;;;;56.40;48.60;;;;;;;6.53;64.03;100339.75;5029816;28;20504;-70
2022/01/05 03:43:49;;;;;;;49.45;42.78;;;;;;;6.82;63.10;100342.06;5029470;28;20893;-70
2022/01/05 03:46:16;;;;;;;51.78;45.22;;;;;;;7.18;61.73;100345.59;5029525;28;20505;-69
2022/01/05 03:48:44;;;;;;;98.00;89.15;;;;;;;7.05;62.22;100340.38;5011879;28;20512;-70
2022/01/05 03:51:11;;;;;;;58.90;49.50;;;;;;;7.16;61.71;100352.75;5029420;28;20413;-69
2022/01/05 03:53:38;;;;;;;55.42;48.08;;;;;;;7.01;61.98;100354.72;5029393;28;20446;-69
2022/01/05 03:56:05;;;;;;;68.05;59.75;;;;;;;7.07;61.75;100353.44;5029350;28;20497;-70
2022/01/05 03:58:32;;;;;;;67.95;60.53;;;;;;;7.17;61.09;100355.25;5029508;28;20513;-70
2022/01/05 04:00:59;;;;;;;54.97;48.30;;;;;;;7.10;61.48;100358.50;5029322;28;20508;-70
2022/01/05 04:03:26;;;;;;;47.80;41.50;;;;;;;6.95;61.65;100348.09;5029284;28;20472;-70
2022/01/05 04:05:54;;;;;;;57.85;50.03;;;;;;;6.90;61.63;100341.50;5028577;28;20419;-70
2022/01/05 04:08:21;;;;;;;50.03;43.37;;;;;;;6.87;61.74;100333.81;5029556;28;20531;-70
2022/01/05 04:10:48;;;;;;;45.30;40.28;;;;;;;7.11;60.92;100336.44;5029660;28;20424;-70
2022/01/05 04:13:16;;;;;;;49.58;43.95;;;;;;;7.30;60.25;100333.25;5029519;28;20485;-70
2022/01/05 04:15:43;;;;;;;88.50;78.70;;;;;;;7.31;60.07;100319.97;5029451;28;20414;-70
2022/01/05 04:18:10;;;;;;;84.97;73.10;;;;;;;7.30;60.20;100326.22;5013169;28;20453;-70
2022/01/05 04:20:37;;;;;;;87.88;78.65;;;;;;;7.38;59.97;100315.94;5029327;28;20490;-69
2022/01/05 04:23:06;;;;;;;59.67;53.28;;;;;;;7.40;59.54;100307.91;5028752;28;20415;-69
2022/01/05 04:25:33;;;;;;;60.75;54.13;;;;;;;7.38;59.72;100315.06;5029357;28;20418;-69
2022/01/05 04:28:00;;;;;;;51.47;46.08;;;;;;;7.38;59.76;100318.56;5029066;28;20422;-69
2022/01/05 04:30:27;;;;;;;107.88;97.43;;;;;;;7.24;59.84;100321.41;5029167;28;20422;-69
2022/01/05 04:32:54;;;;;;;59.40;49.83;;;;;;;6.94;60.73;100321.91;5029045;28;20505;-69
2022/01/05 04:35:22;;;;;;;60.03;51.22;;;;;;;6.79;60.77;100319.44;5011584;28;20425;-70
2022/01/05 04:37:49;;;;;;;93.43;84.55;;;;;;;6.85;61.20;100325.19;5028885;28;20941;-70
2022/01/05 04:40:17;;;;;;;72.07;65.03;;;;;;;7.16;60.22;100323.78;5029147;28;20501;-70
2022/01/05 04:42:44;;;;;;;64.35;56.72;;;;;;;7.20;59.71;100330.50;5029125;28;20433;-69
2022/01/05 04:45:11;;;;;;;61.88;55.00;;;;;;;6.83;60.88;100341.09;5028996;28;20418;-70
2022/01/05 04:47:38;;;;;;;60.80;53.83;;;;;;;6.71;61.40;100336.72;5028683;28;20504;-69
2022/01/05 04:50:06;;;;;;;58.10;51.77;;;;;;;6.75;61.21;100338.19;5028975;28;20501;-69
2022/01/05 04:52:33;;;;;;;77.18;69.05;;;;;;;6.98;62.13;100336.53;5028589;28;20967;-69
2022/01/05 04:55:00;;;;;;;56.15;50.03;;;;;;;7.06;61.19;100336.78;5028823;28;20422;-70
2022/01/05 04:57:28;;;;;;;52.53;46.75;;;;;;;7.02;61.34;100327.44;5029028;28;20686;-69
2022/01/05 04:59:55;;;;;;;51.97;45.90;;;;;;;6.91;61.40;100330.84;5028557;28;20537;-69
2022/01/05 05:02:22;;;;;;;50.20;44.85;;;;;;;6.57;62.22;100337.75;5028707;28;20426;-69
2022/01/05 05:04:49;;;;;;;91.20;73.03;;;;;;;6.31;62.77;100340.44;5028414;28;20414;-69
2022/01/05 05:07:16;;;;;;;61.88;55.08;;;;;;;6.42;62.42;100342.31;5028455;28;20497;-69
2022/01/05 05:09:42;;;;;;;62.45;53.05;;;;;;;6.70;61.40;100335.91;5028446;28;20419;-69
2022/01/05 05:12:11;;;;;;;64.63;57.60;;;;;;;6.76;60.90;100337.25;5028780;28;20449;-69
2022/01/05 05:14:39;;;;;;;78.80;70.30;;;;;;;6.83;60.64;100330.56;5028380;28;20410;-70
2022/01/05 05:17:07;;;;;;;81.75;73.18;;;;;;;6.93;60.01;100336.84;5006444;28;20489;-70
2022/01/05 05:19:34;;;;;;;72.35;64.65;;;;;;;6.69;60.72;100338.63;5032244;28;20434;-71
2022/01/05 05:22:01;;;;;;;68.72;61.25;;;;;;;6.38;61.67;100339.03;5031961;28;20414;-70
2022/01/05 05:24:28;;;;;;;81.45;72.70;;;;;;;6.13;62.18;100342.59;5031815;28;20873;-69
2022/01/05 05:26:55;;;;;;;85.28;76.07;;;;;;;6.21;61.90;100344.69;5014147;28;20429;-69
2022/01/05 05:29:22;;;;;;;81.13;70.80;;;;;;;6.07;62.25;100343.00;5031628;28;20570;-70
2022/01/05 05:31:50;;;;;;;80.00;71.32;;;;;;;5.91;62.53;100342.38;5031649;28;20497;-69
2022/01/05 05:34:17;;;;;;;90.32;80.85;;;;;;;6.07;61.62;100337.75;5031514;28;20501;-68
2022/01/05 05:36:44;;;;;;;103.68;93.32;;;;;;;5.92;62.07;100341.41;5031515;28;20497;-69
2022/01/05 05:39:11;;;;;;;101.55;91.13;;;;;;;6.09;62.03;100335.84;5031338;28;20469;-70
2022/01/05 05:41:38;;;;;;;99.75;89.20;;;;;;;5.93;62.75;100343.09;5031942;28;20497;-70
2022/01/05 05:44:06;;;;;;;95.15;84.78;;;;;;;5.90;62.43;100330.16;5031453;28;20411;-70
2022/01/05 05:46:33;;;;;;;77.28;68.85;;;;;;;5.82;63.28;100317.56;5030665;28;20505;-70
2022/01/05 05:49:02;;;;;;;75.97;68.10;;;;;;;5.94;63.14;100331.63;5031342;28;20916;-69
2022/01/05 05:51:29;;;;;;;77.22;69.22;;;;;;;5.80;64.15;100340.50;5031487;28;20541;-70
2022/01/05 05:53:56;;;;;;;70.88;63.15;;;;;;;5.81;64.57;100358.75;5029955;28;20410;-70
2022/01/05 05:56:23;;;;;;;78.32;70.18;;;;;;;5.85;64.70;100359.41;5013350;28;20967;-70
2022/01/05 05:58:50;;;;;;;68.63;61.13;;;;;;;5.88;65.11;100360.97;5031473;28;20431;-70
2022/01/05 06:01:17;;;;;;;65.47;57.20;;;;;;;5.89;65.48;100355.63;5029115;28;20497;-70
2022/01/05 06:03:45;;;;;;;61.33;54.55;;;;;;;6.07;64.84;100350.91;5031074;28;20863;-70
2022/01/05 06:06:13;;;;;;;64.05;56.95;;;;;;;6.22;64.41;100355.09;5013568;28;20923;-70
2022/01/05 06:08:40;;;;;;;64.18;57.13;;;;;;;6.53;63.10;100355.56;5031369;28;20540;-70
2022/01/05 06:11:07;;;;;;;86.03;69.22;;;;;;;6.31;63.31;100364.13;5031305;28;20419;-70
2022/01/05 06:13:34;;;;;;;83.65;69.43;;;;;;;6.46;62.53;100358.72;5030951;28;20422;-70
2022/01/05 06:16:01;;;;;;;70.47;60.88;;;;;;;6.84;61.76;100373.56;5013286;28;20422;-70
2022/01/05 06:18:28;;;;;;;61.35;54.13;;;;;;;6.83;61.59;100367.44;5031378;28;20497;-70
2022/01/05 06:20:55;;;;;;;51.63;46.13;;;;;;;7.76;59.57;100367.50;5030897;28;20414;-70
2022/01/05 06:23:23;;;;;;;43.53;38.80;;;;;;;9.36;55.17;100360.06;5031096;28;20497;-70
2022/01/05 06:25:50;;;;;;;46.33;41.42;;;;;;;9.88;53.12;100362.78;5030781;28;20923;-71
2022/01/05 06:28:17;;;;;;;47.73;42.70;;;;;;;10.69;51.29;100365.47;5030328;28;20501;-70
2022/01/05 06:30:44;;;;;;;41.63;37.22;;;;;;;10.56;50.61;100359.56;5030878;28;20501;-70
2022/01/05 06:33:11;;;;;;;51.83;45.65;;;;;;;10.87;50.37;100363.00;5030678;28;20422;-70
2022/01/05 06:35:38;;;;;;;52.97;46.70;;;;;;;11.88;48.10;100362.63;5030542;28;20875;-69
2022/01/05 06:38:05;;;;;;;52.00;46.20;;;;;;;13.72;43.72;100360.63;5030504;28;20912;-69
2022/01/05 06:40:34;;;;;;;56.00;48.97;;;;;;;14.70;41.45;100370.97;5030423;28;20430;-69
2022/01/05 06:43:01;;;;;;;55.83;47.95;;;;;;;15.57;39.90;100376.72;5030645;28;20900;-69
2022/01/05 06:45:28;;;;;;;46.07;41.33;;;;;;;14.46;41.71;100385.00;5030407;28;20441;-69
2022/01/05 06:47:55;;;;;;;39.63;35.53;;;;;;;16.16;38.25;100376.47;5030355;28;20878;-69
2022/01/05 06:50:23;;;;;;;43.28;38.80;;;;;;;17.48;35.98;100383.75;5030729;28;20534;-69
2022/01/05 06:52:50;;;;;;;42.20;37.60;;;;;;;17.02;36.41;100388.13;5030378;28;20468;-69
2022/01/05 06:55:18;;;;;;;58.33;46.40;;;;;;;17.39;35.44;100386.50;5030607;28;20414;-69
2022/01/05 06:57:47;;;;;;;37.97;33.38;;;;;;;17.37;35.39;100374.31;5030156;28;20868;-69
2022/01/05 07:00:16;;;;;;;34.67;31.00;;;;;;;17.63;34.33;100380.13;5029963;28;20437;-69
2022/01/05 07:02:43;;;;;;;32.55;29.38;;;;;;;19.11;32.13;100391.00;5012756;28;20422;-69
2022/01/05 07:05:10;;;;;;;36.38;32.05;;;;;;;20.53;29.80;100406.13;5030024;28;20505;-70
2022/01/05 07:07:37;;;;;;;37.30;33.30;;;;;;;21.69;28.21;100391.72;5030013;28;20927;-70
2022/01/05 07:10:06;;;;;;;36.80;32.92;;;;;;;23.43;25.86;100397.34;5030729;28;20441;-70
2022/01/05 07:12:33;;;;;;;31.40;28.10;;;;;;;23.44;25.76;100398.97;5029908;28;20456;-70
2022/01/05 07:15:02;;;;;;;26.95;24.38;;;;;;;21.37;27.95;100392.31;5029915;28;20421;-70
2022/01/05 07:17:29;;;;;;;33.88;29.17;;;;;;;21.83;27.04;100395.25;5029889;28;20912;-69
2022/01/05 07:19:56;;;;;;;37.23;31.57;;;;;;;23.11;25.65;100391.94;5029613;28;20815;-69
2022/01/05 07:22:23;;;;;;;25.95;23.38;;;;;;;23.74;24.67;100399.16;5029888;28;20421;-70
2022/01/05 07:24:50;;;;;;;28.20;25.35;;;;;;;25.46;22.86;100394.63;5030054;28;20504;-69
2022/01/05 07:27:17;;;;;;;25.33;22.95;;;;;;;25.79;22.46;100397.59;5030073;28;20414;-70
2022/01/05 07:29:44;;;;;;;25.23;22.63;;;;;;;25.56;22.33;100392.16;5029764;28;20421;-70
2022/01/05 07:32:13;;;;;;;21.92;19.92;;;;;;;25.91;21.95;100388.66;5029627;28;20919;-70
2022/01/05 07:34:40;;;;;;;22.98;20.80;;;;;;;26.74;21.20;100392.06;5029931;28;20489;-70
2022/01/05 07:37:07;;;;;;;22.60;20.52;;;;;;;27.64;20.42;100392.31;5029640;28;20984;-70
2022/01/05 07:39:34;;;;;;;24.10;21.88;;;;;;;27.43;20.20;100393.88;5029243;28;20434;-70
2022/01/05 07:42:01;;;;;;;27.77;25.17;;;;;;;27.93;19.67;100399.31;5029000;28;20934;-69
2022/01/05 07:44:28;;;;;;;38.00;34.47;;;;;;;27.89;19.90;100389.19;5029494;28;20418;-70
2022/01/05 07:46:55;;;;;;;39.75;36.13;;;;;;;28.19;19.44;100387.97;5029952;28;20417;-70
2022/01/05 07:49:23;;;;;;;33.50;30.17;;;;;;;28.66;19.13;100376.56;5029593;28;20418;-70
2022/01/05 07:51:51;;;;;;;33.45;30.02;;;;;;;29.37;18.59;100373.75;5029589;28;20418;-68
2022/01/05 07:54:18;;;;;;;36.58;32.88;;;;;;;31.22;16.93;100377.34;5029603;28;20422;-71
2022/01/05 07:56:44;;;;;;;36.55;32.88;;;;;;;32.20;16.15;100378.06;5029633;28;20498;-71
2022/01/05 07:59:11;;;;;;;38.22;33.85;;;;;;;31.91;16.29;100378.66;5029363;28;20510;-68
2022/01/05 08:01:38;;;;;;;36.55;32.65;;;;;;;32.41;15.71;100374.16;5029411;28;20418;-70
2022/01/05 08:04:05;;;;;;;41.83;37.72;;;;;;;31.71;16.25;100365.84;5029116;28;20416;-68
2022/01/05 08:06:34;;;;;;;47.37;42.47;;;;;;;32.17;15.84;100368.50;5029678;28;20438;-68
2022/01/05 08:09:01;;;;;;;53.03;47.57;;;;;;;33.35;14.77;100365.06;5011729;28;20406;-71
2022/01/05 08:11:28;;;;;;;55.15;49.75;;;;;;;34.13;14.45;100368.69;5029413;28;20416;-69
2022/01/05 08:13:55;;;;;;;55.17;49.83;;;;;;;34.15;14.26;100363.75;5028958;28;20878;-69
2022/01/05 08:16:22;;;;;;;48.97;44.38;;;;;;;34.36;13.80;100358.00;5028885;28;20448;-69
2022/01/05 08:18:49;;;;;;;51.67;46.70;;;;;;;34.87;13.52;100360.84;5028970;28;20497;-69
2022/01/05 08:21:17;;;;;;;48.83;44.17;;;;;;;35.13;13.36;100354.13;5029293;28;20437;-68
2022/01/05 08:23:46;;;;;;;49.85;44.97;;;;;;;34.99;13.27;100346.63;5028922;28;20533;-68
2022/01/05 08:26:14;;;;;;;46.83;42.30;;;;;;;35.90;12.80;100343.41;5028934;28;20501;-70
2022/01/05 08:28:41;;;;;;;41.30;37.50;;;;;;;35.95;12.81;100341.66;5028778;28;20514;-70
2022/01/05 08:31:08;;;;;;;39.78;35.83;;;;;;;35.46;12.92;100335.69;5028827;28;20415;-71
2022/01/05 08:33:35;;;;;;;41.03;36.90;;;;;;;36.03;12.70;100336.28;5028876;28;20422;-71
2022/01/05 08:36:02;;;;;;;43.75;38.20;;;;;;;35.58;13.03;100341.50;5028995;28;20478;-70
2022/01/05 08:38:29;;;;;;;44.97;40.17;;;;;;;37.37;12.19;100330.47;5028667;28;20426;-70
2022/01/05 08:40:58;;;;;;;44.85;40.03;;;;;;;37.82;11.73;100322.09;5028594;28;20430;-71
2022/01/05 08:43:25;;;;;;;42.90;37.65;;;;;;;38.24;11.49;100328.06;5028557;28;20465;-68
2022/01/05 08:45:52;;;;;;;43.45;38.75;;;;;;;39.10;11.21;100315.41;5028828;28;20410;-70
2022/01/05 08:48:19;;;;;;;41.55;37.30;;;;;;;38.52;10.91;100311.19;5028522;28;20418;-70
2022/01/05 08:50:46;;;;;;;37.05;33.38;;;;;;;39.12;10.73;100323.41;5028511;28;20497;-70
2022/01/05 08:53:13;;;;;;;35.97;32.15;;;;;;;37.68;11.95;100320.25;5032066;28;20835;-73
2022/01/05 08:55:42;;;;;;;37.75;33.85;;;;;;;37.47;12.08;100324.66;5031658;28;20421;-70
2022/01/05 08:58:11;;;;;;;36.83;33.25;;;;;;;37.95;11.92;100325.84;5032186;28;20410;-70
2022/01/05 09:00:38;;;;;;;34.92;31.58;;;;;;;38.31;11.44;100317.34;5032372;28;20525;-71
2022/01/05 09:03:06;;;;;;;32.90;30.05;;;;;;;38.07;11.40;100321.34;5032305;28;20769;-71
2022/01/05 09:05:34;;;;;;;38.78;34.65;;;;;;;37.11;12.06;100309.03;5032240;28;20424;-72
2022/01/05 09:08:01;;;;;;;32.55;29.48;;;;;;;36.99;11.94;100311.53;5032347;28;20492;-71
2022/01/05 09:10:29;;;;;;;38.60;35.00;;;;;;;37.99;11.42;100300.00;5032269;28;20438;-71
2022/01/05 09:12:56;;;;;;;26.77;24.17;;;;;;;36.70;12.15;100307.25;5032144;28;20766;-70
2022/01/05 09:15:25;;;;;;;23.70;21.50;;;;;;;37.03;11.84;100293.22;5032222;28;20501;-71
2022/01/05 09:17:52;;;;;;;24.77;22.57;;;;;;;37.15;12.18;100299.00;5032312;28;20957;-71
2022/01/05 09:20:19;;;;;;;25.02;22.58;;;;;;;38.26;11.09;100301.72;5032087;28;20494;-71
2022/01/05 09:22:46;;;;;;;29.80;27.00;;;;;;;36.87;12.05;100304.63;5032392;28;20426;-71
2022/01/05 09:25:18;;;;;;;31.65;28.65;;;;;;;36.21;13.10;100306.13;5032248;28;20418;-71
2022/01/05 09:27:46;;;;;;;34.30;31.03;;;;;;;37.04;12.13;100303.13;5032167;28;20484;-71
2022/01/05 09:30:15;;;;;;;34.70;31.50;;;;;;;36.12;12.48;100296.94;5014097;28;20419;-71
2022/01/05 09:32:44;;;;;;;33.00;29.90;;;;;;;37.54;12.13;100283.56;5031498;28;20414;-71
2022/01/05 09:35:14;;;;;;;31.77;28.77;;;;;;;37.64;11.67;100285.28;5031704;28;20497;-72
2022/01/05 09:37:51;;;;;;;29.52;26.83;;;;;;;35.80;13.46;100290.44;5031821;28;20422;-71
2022/01/05 09:43:04;;;;;;;28.80;26.13;;;;;;;36.35;12.79;100276.59;5031817;28;20816;-72
2022/01/05 09:45:34;;;;;;;28.53;25.63;;;;;;;37.29;12.21;100277.63;5031702;28;20773;-71
2022/01/05 09:48:28;;;;;;;28.57;25.40;;;;;;;38.35;11.49;100274.06;5030871;28;20424;-71
2022/01/05 09:50:59;;;;;;;27.45;24.60;;;;;;;38.51;11.80;100276.31;5031827;28;20517;-71
2022/01/05 09:53:26;;;;;;;28.73;24.15;;;;;;;38.10;11.76;100267.38;5031202;28;20425;-71
2022/01/05 09:55:53;;;;;;;24.50;21.60;;;;;;;38.52;11.14;100276.03;5030932;28;20498;-69
2022/01/05 09:58:22;;;;;;;22.35;19.55;;;;;;;38.19;11.28;100259.88;5031720;28;20426;-71
2022/01/05 10:00:50;;;;;;;22.88;19.65;;;;;;;38.48;11.66;100261.19;5031104;28;20522;-69
2022/01/05 10:03:17;;;;;;;21.08;17.85;;;;;;;38.13;11.33;100250.13;5030632;28;20410;-69
2022/01/05 10:05:45;;;;;;;17.13;15.20;;;;;;;35.59;13.34;100240.44;5031346;28;20529;-72
2022/01/05 10:08:12;;;;;;;13.67;12.27;;;;;;;35.57;13.61;100240.72;5031279;28;20425;-71
2022/01/05 10:10:42;;;;;;;13.48;12.18;;;;;;;37.09;12.24;100232.00;5031172;28;20425;-69
2022/01/05 10:13:09;;;;;;;13.93;12.48;;;;;;;37.71;11.56;100235.06;5031103;28;20489;-71
2022/01/05 10:15:37;;;;;;;13.73;12.48;;;;;;;37.14;12.01;100225.56;5030976;28;20918;-71
2022/01/05 10:18:11;;;;;;;13.45;12.15;;;;;;;36.93;12.33;100216.19;5031500;28;20414;-72
2022/01/05 10:20:38;;;;;;;13.63;12.23;;;;;;;37.37;12.30;100212.50;5030885;28;20484;-71
2022/01/05 10:23:08;;;;;;;12.68;11.48;;;;;;;35.49;13.41;100217.47;5031052;28;20497;-71
2022/01/05 10:25:35;;;;;;;11.67;10.57;;;;;;;35.13;13.62;100211.78;5031151;28;20414;-71
2022/01/05 10:28:04;;;;;;;18.88;17.17;;;;;;;36.23;12.86;100207.38;5030898;28;20505;-70
2022/01/05 10:30:36;;;;;;;20.07;12.20;;;;;;;36.35;12.94;100202.13;5030854;28;20461;-71
2022/01/05 10:33:03;;;;;;;14.30;12.90;;;;;;;37.24;12.57;100199.59;5031054;28;20419;-71
2022/01/05 10:35:30;;;;;;;13.80;12.40;;;;;;;37.77;12.22;100197.84;5030711;28;20511;-71
2022/01/05 10:37:59;;;;;;;13.10;11.98;;;;;;;37.19;12.72;100191.44;5030959;28;20489;-70
2022/01/05 10:40:28;;;;;;;14.38;12.98;;;;;;;36.63;13.18;100183.53;5030706;28;20509;-71
2022/01/05 10:42:57;;;;;;;16.63;14.93;;;;;;;37.09;12.59;100181.50;5030427;28;20445;-71
2022/01/05 10:45:38;;;;;;;16.25;13.55;;;;;;;35.24;14.33;100183.00;5030684;28;20410;-71
2022/01/05 10:48:08;;;;;;;13.73;12.32;;;;;;;35.79;14.12;100175.81;5030209;28;20422;-70
2022/01/05 10:50:36;;;;;;;13.77;12.48;;;;;;;35.78;14.01;100176.94;5030747;28;20437;-71
2022/01/05 10:53:05;;;;;;;14.55;13.05;;;;;;;34.78;15.08;100174.75;5012424;28;20410;-69
2022/01/05 10:55:38;;;;;;;15.60;13.70;;;;;;;34.81;15.02;100171.38;5030552;28;20495;-69
2022/01/05 10:58:07;;;;;;;16.02;14.43;;;;;;;34.48;15.06;100163.13;5029993;28;20414;-69
2022/01/05 11:00:38;;;;;;;18.80;16.90;;;;;;;34.06;15.49;100162.91;5030192;28;20444;-69
2022/01/05 11:03:22;;;;;;;19.27;17.35;;;;;;;34.34;15.29;100151.25;5012752;28;20429;-69
2022/01/05 11:06:08;;;;;;;22.73;20.50;;;;;;;34.29;15.15;100143.91;5030021;28;20422;-69
2022/01/05 11:08:49;;;;;;;22.70;20.30;;;;;;;32.33;16.69;100139.81;5030148;28;20804;-69
2022/01/05 11:11:36;;;;;;;23.92;21.55;;;;;;;31.98;17.54;100123.63;5030001;28;20907;-69
2022/01/05 11:14:03;;;;;;;26.00;22.55;;;;;;;31.33;17.89;100122.56;5029767;28;20832;-69
2022/01/05 11:16:31;;;;;;;24.73;22.23;;;;;;;30.38;18.69;100120.53;5029764;28;20418;-69
2022/01/05 11:19:19;;;;;;;26.00;21.75;;;;;;;30.91;18.09;100122.97;5045157;28;20979;-69
2022/01/05 11:22:07;;;;;;;22.73;20.63;;;;;;;30.61;18.26;100119.16;5029640;28;20936;-69